Terminal Aerodrome Forecast
Issued by NWS Missoula, MT

Home | Current Version | Previous Version | Text Only | Print | Product List | Glossary On
Versions: 1 2 3 4 5 6 7 8 9 10 11 12 13 14 15 16 17 18 19 20 21 22 23 24
233
FTUS45 KMSO 300520
TAFMSO
TAF
KMSO 300520Z 3006/3106 VRB06KT P6SM SCT100
     FM301500 30012KT P6SM SKC
     FM302100 31015G29KT P6SM VCSH BKN100=

USA.gov is the U.S. government's official web portal to all federal, state and local government web resources and services.